Time;durP1;ratioP1;P1;durP2;ratioP2;P2;SDS_P1;SDS_P2;PMS_P1;PMS_P2;Temp;Humidity;BMP_temperature;BMP_pressure;BME280_temperature;BME280_humidity;BME280_pressure;Samples;Min_cycle;Max_cycle;Signal;HPM_P1;HPM_P2
2023/04/21 00:02:26;;;;;;;41.90;9.20;;;;;;;7.39;100.00;98918.83;106318;1255;72563;-81
2023/04/21 00:04:55;;;;;;;28.70;9.80;;;;;;;7.54;100.00;98918.91;106432;1254;60565;-81
2023/04/21 00:07:22;;;;;;;21.90;9.70;;;;;;;7.63;100.00;98917.15;106262;1256;61435;-81
2023/04/21 00:09:49;;;;;;;19.80;9.80;;;;;;;7.42;100.00;98916.74;106066;1256;73777;-82
2023/04/21 00:12:16;;;;;;;35.60;10.50;;;;;;;7.43;100.00;98913.61;106474;1253;69774;-81
2023/04/21 00:14:43;;;;;;;26.80;8.40;;;;;;;7.47;100.00;98911.15;108842;1253;71256;-81
2023/04/21 00:17:09;;;;;;;36.00;10.30;;;;;;;7.54;100.00;98914.16;107654;1257;60922;-81
2023/04/21 00:19:36;;;;;;;21.50;11.00;;;;;;;7.48;100.00;98913.94;106163;1252;61235;-82
2023/04/21 00:22:03;;;;;;;24.50;10.10;;;;;;;7.37;100.00;98908.20;106323;1256;73631;-81
2023/04/21 00:24:30;;;;;;;22.00;11.30;;;;;;;7.30;100.00;98903.41;106438;1253;70010;-81
2023/04/21 00:26:57;;;;;;;39.90;13.70;;;;;;;7.09;100.00;98903.52;106342;1254;72951;-80
2023/04/21 00:29:23;;;;;;;34.40;12.10;;;;;;;6.98;100.00;98906.56;106426;1254;61097;-81
2023/04/21 00:31:50;;;;;;;43.40;13.70;;;;;;;6.86;100.00;98908.83;106529;1254;60401;-81
2023/04/21 00:34:17;;;;;;;37.60;13.40;;;;;;;6.69;100.00;98904.54;106462;1254;73891;-81
2023/04/21 00:36:44;;;;;;;27.00;12.00;;;;;;;6.71;100.00;98899.55;106027;1259;66714;-81
2023/04/21 00:39:11;;;;;;;38.30;11.60;;;;;;;6.60;100.00;98898.53;106032;1256;73316;-79
2023/04/21 00:41:38;;;;;;;44.30;23.30;;;;;;;6.59;100.00;98891.50;106207;1253;60979;-81
2023/04/21 00:44:07;;;;;;;32.10;11.60;;;;;;;6.57;100.00;98891.56;106464;1253;60555;-79
2023/04/21 00:46:35;;;;;;;32.80;9.80;;;;;;;6.54;100.00;98895.63;106295;1258;74392;-81
2023/04/21 00:49:06;;;;;;;26.70;12.10;;;;;;;6.43;100.00;98893.86;106399;1253;69805;-81
2023/04/21 00:51:34;;;;;;;28.20;11.10;;;;;;;6.11;100.00;98893.89;106263;1261;73562;-81
2023/04/21 00:54:02;;;;;;;38.60;11.30;;;;;;;6.01;100.00;98898.23;106387;1259;60395;-81
2023/04/21 00:56:30;;;;;;;;;;;;;;;5.97;100.00;98897.02;106351;1256;60436;-81
2023/04/21 00:59:00;;;;;;;31.70;11.30;;;;;;;5.76;100.00;98898.69;106323;1253;74838;-82
2023/04/21 01:01:29;;;;;;;29.10;11.50;;;;;;;5.73;100.00;98893.80;106232;1258;69758;-81
2023/04/21 01:03:58;;;;;;;26.70;11.00;;;;;;;5.65;100.00;98895.14;106251;1253;71963;-82
2023/04/21 01:06:31;;;;;;;20.50;10.80;;;;;;;5.67;100.00;98895.83;106211;1258;60401;-81
2023/04/21 01:08:58;;;;;;;25.80;9.80;;;;;;;5.72;100.00;98894.27;106271;1253;60401;-82
2023/04/21 01:11:25;;;;;;;23.20;8.90;;;;;;;5.60;100.00;98892.70;106327;1253;73734;-80
2023/04/21 01:13:55;;;;;;;21.90;10.70;;;;;;;5.45;100.00;98889.71;106368;1257;69655;-81
2023/04/21 01:16:22;;;;;;;21.50;10.40;;;;;;;5.36;100.00;98890.44;106244;1253;73876;-80
2023/04/21 01:18:50;;;;;;;36.80;11.70;;;;;;;5.49;100.00;98888.39;106493;1253;60461;-80
2023/04/21 01:21:18;;;;;;;32.00;11.70;;;;;;;5.58;100.00;98885.70;106204;1261;60535;-80
2023/04/21 01:23:45;;;;;;;30.20;11.60;;;;;;;5.62;100.00;98885.07;106334;1258;74759;-81
2023/04/21 01:26:12;;;;;;;34.90;12.40;;;;;;;5.72;100.00;98885.48;106263;1257;67609;-81
2023/04/21 01:28:38;;;;;;;49.50;17.50;;;;;;;5.93;100.00;98884.05;106165;1253;72694;-81
2023/04/21 01:31:05;;;;;;;39.00;15.30;;;;;;;6.04;100.00;98886.89;106221;1253;61351;-81
2023/04/21 01:33:32;;;;;;;38.60;18.30;;;;;;;6.06;100.00;98883.82;106230;1253;61213;-81
2023/04/21 01:36:00;;;;;;;37.70;13.80;;;;;;;6.02;100.00;98882.63;106265;1253;73699;-82
2023/04/21 01:38:27;;;;;;;31.10;12.10;;;;;;;5.94;100.00;98880.50;106244;1253;68492;-81
2023/04/21 01:40:54;;;;;;;26.80;11.10;;;;;;;5.83;100.00;98883.85;106098;1256;73436;-81
2023/04/21 01:43:22;;;;;;;49.40;17.70;;;;;;;5.83;100.00;98880.88;106275;1258;61011;-80
2023/04/21 01:45:50;;;;;;;38.90;16.10;;;;;;;5.69;100.00;98879.98;106349;1253;61093;-80
2023/04/21 01:48:17;;;;;;;52.60;26.40;;;;;;;5.81;100.00;98875.20;106217;1253;74233;-80
2023/04/21 01:50:44;;;;;;;54.40;22.10;;;;;;;5.78;100.00;98874.77;106434;1255;69673;-81
2023/04/21 01:53:10;;;;;;;38.80;16.20;;;;;;;5.69;100.00;98879.02;106546;1253;73409;-81
2023/04/21 01:55:37;;;;;;;38.70;13.60;;;;;;;5.51;100.00;98878.80;106405;1253;62058;-81
2023/04/21 01:58:07;;;;;;;28.20;12.20;;;;;;;5.42;100.00;98881.89;106510;1258;60349;-81
2023/04/21 02:00:35;;;;;;;41.90;15.50;;;;;;;5.30;100.00;98883.67;106471;1260;74944;-79
2023/04/21 02:03:04;;;;;;;35.80;13.50;;;;;;;5.21;100.00;98884.80;106524;1253;68752;-81
2023/04/21 02:05:31;;;;;;;48.10;24.40;;;;;;;5.21;100.00;98880.88;106542;1253;73531;-80
2023/04/21 02:07:58;;;;;;;45.40;22.40;;;;;;;5.16;100.00;98883.10;105929;1253;61430;-82
2023/04/21 02:10:25;;;;;;;44.00;18.10;;;;;;;5.16;100.00;98877.83;106113;1253;61196;-79
2023/04/21 02:12:52;;;;;;;52.80;21.50;;;;;;;5.03;100.00;98879.34;106459;1257;74272;-80
2023/04/21 02:15:19;;;;;;;36.30;18.30;;;;;;;4.91;100.00;98879.04;106424;1257;67734;-80
2023/04/21 02:17:46;;;;;;;36.20;17.80;;;;;;;5.00;100.00;98877.15;106253;1260;71544;-80
2023/04/21 02:20:13;;;;;;;28.60;13.80;;;;;;;5.09;100.00;98875.29;106446;1257;60469;-81
2023/04/21 02:22:40;;;;;;;28.90;13.00;;;;;;;5.20;100.00;98871.11;106123;1253;61500;-81
2023/04/21 02:25:07;;;;;;;28.00;14.30;;;;;;;5.45;100.00;98872.08;106181;1254;71757;-80
2023/04/21 02:27:35;;;;;;;44.40;15.90;;;;;;;5.38;100.00;98875.78;106328;1254;69761;-81
2023/04/21 02:30:02;;;;;;;29.10;14.10;;;;;;;5.13;100.00;98876.44;106291;1254;72890;-81
2023/04/21 02:32:30;;;;;;;35.10;13.90;;;;;;;4.97;100.00;98880.10;106060;1254;62525;-81
2023/04/21 02:34:57;;;;;;;29.70;12.60;;;;;;;4.81;100.00;98883.27;106416;1254;60276;-81
2023/04/21 02:37:24;;;;;;;47.40;24.20;;;;;;;4.78;100.00;98889.16;106420;1257;72876;-81
2023/04/21 02:39:52;;;;;;;;;;;;;;;4.76;100.00;98888.38;106405;1254;68907;-81
2023/04/21 02:42:19;;;;;;;53.50;23.90;;;;;;;4.69;100.00;98889.98;106441;1254;73578;-79
2023/04/21 02:44:47;;;;;;;51.30;28.60;;;;;;;4.73;100.00;98888.80;106217;1256;62292;-81
2023/04/21 02:47:15;;;;;;;77.50;27.60;;;;;;;4.76;100.00;98889.86;106138;1255;60499;-80
2023/04/21 02:49:42;;;;;;;67.70;27.40;;;;;;;4.82;100.00;98888.23;106036;1254;72688;-81
2023/04/21 02:52:09;;;;;;;45.00;24.20;;;;;;;4.45;100.00;98886.96;106286;1254;68848;-80
2023/04/21 02:54:36;;;;;;;51.70;26.10;;;;;;;4.51;100.00;98889.89;106325;1257;73555;-81
2023/04/21 02:57:03;;;;;;;66.00;26.50;;;;;;;4.47;100.00;98889.95;106189;1262;60427;-80
2023/04/21 02:59:30;;;;;;;61.90;31.20;;;;;;;4.39;100.00;98887.05;106383;1260;60606;-79
2023/04/21 03:01:58;;;;;;;56.40;28.40;;;;;;;4.29;100.00;98885.91;106137;1259;73825;-80
2023/04/21 03:04:25;;;;;;;65.30;24.50;;;;;;;4.33;100.00;98886.41;106129;1257;69769;-80
2023/04/21 03:06:54;;;;;;;49.20;23.80;;;;;;;4.32;100.00;98882.10;105845;1257;70458;-80
2023/04/21 03:09:21;;;;;;;52.90;23.20;;;;;;;4.32;100.00;98880.51;105734;1258;61511;-80
2023/04/21 03:11:48;;;;;;;44.20;23.90;;;;;;;4.36;100.00;98878.41;108196;1256;60354;-79
2023/04/21 03:14:15;;;;;;;59.40;24.30;;;;;;;4.47;100.00;98882.30;108405;1257;73181;-81
2023/04/21 03:16:42;;;;;;;46.20;24.50;;;;;;;4.75;100.00;98883.25;106155;1257;69861;-81
2023/04/21 03:19:09;;;;;;;49.00;25.10;;;;;;;4.73;100.00;98889.33;106110;1255;72581;-79
2023/04/21 03:21:37;;;;;;;51.90;23.00;;;;;;;4.80;100.00;98886.60;106113;1257;61300;-79
2023/04/21 03:24:05;;;;;;;;;;;;;;;4.90;100.00;98887.73;106115;1260;60387;-79
2023/04/21 03:26:32;;;;;;;52.10;22.10;;;;;;;4.90;100.00;98883.63;106063;1260;74584;-80
2023/04/21 03:28:58;;;;;;;50.80;22.10;;;;;;;5.04;100.00;98890.58;105897;1259;69820;-79
2023/04/21 03:31:25;;;;;;;41.40;19.00;;;;;;;5.09;100.00;98889.09;105849;1257;73693;-79
2023/04/21 03:33:52;;;;;;;49.20;21.20;;;;;;;5.33;100.00;98891.23;106003;1258;62199;-79
2023/04/21 03:36:19;;;;;;;53.00;30.60;;;;;;;5.46;100.00;98896.48;106030;1262;60492;-81
2023/04/21 03:38:46;;;;;;;53.40;22.60;;;;;;;5.48;100.00;98886.85;105803;1258;74174;-82
2023/04/21 03:41:13;;;;;;;46.70;23.90;;;;;;;5.58;100.00;98889.41;106039;1257;69113;-80
2023/04/21 03:43:39;;;;;;;60.00;33.60;;;;;;;5.73;100.00;98884.38;106206;1261;73484;-81
2023/04/21 03:46:06;;;;;;;47.60;23.80;;;;;;;5.65;100.00;98884.87;106107;1262;61376;-80
2023/04/21 03:48:33;;;;;;;54.60;24.90;;;;;;;6.03;100.00;98886.00;106137;1258;60325;-79
2023/04/21 03:51:00;;;;;;;40.80;23.10;;;;;;;6.28;100.00;98885.08;106105;1260;74192;-80
2023/04/21 03:53:27;;;;;;;59.90;31.40;;;;;;;6.43;100.00;98881.55;106013;1261;69790;-80
2023/04/21 03:55:54;;;;;;;76.00;30.80;;;;;;;6.69;100.00;98885.98;106070;1261;74018;-79
2023/04/21 03:58:22;;;;;;;53.60;24.50;;;;;;;6.77;100.00;98883.34;105985;1262;61055;-80
2023/04/21 04:00:48;;;;;;;43.60;22.90;;;;;;;6.86;100.00;98889.02;105977;1261;60433;-80
2023/04/21 04:03:15;;;;;;;43.00;23.00;;;;;;;6.59;100.00;98887.02;106053;1260;74055;-79
2023/04/21 04:05:42;;;;;;;34.70;19.30;;;;;;;6.59;100.00;98891.06;106120;1260;68525;-80
2023/04/21 04:08:10;;;;;;;54.00;22.00;;;;;;;6.62;100.00;98888.98;106442;1259;73151;-80
2023/04/21 04:10:36;;;;;;;53.00;22.00;;;;;;;6.69;100.00;98895.43;106286;1254;61245;-80
2023/04/21 04:13:03;;;;;;;26.00;13.70;;;;;;;7.10;100.00;98901.17;105809;1254;61256;-80
2023/04/21 04:15:30;;;;;;;39.20;15.60;;;;;;;7.29;100.00;98904.95;106145;1254;74410;-81
2023/04/21 04:17:57;;;;;;;28.60;10.00;;;;;;;7.65;100.00;98906.66;106189;1266;68471;-80
2023/04/21 04:20:24;;;;;;;19.70;7.80;;;;;;;7.77;100.00;98907.59;106136;1260;72678;-79
2023/04/21 04:22:52;;;;;;;123.40;53.10;;;;;;;7.82;100.00;98903.67;106133;1257;62171;-78
2023/04/21 04:25:18;;;;;;;74.00;27.60;;;;;;;7.85;100.00;98901.73;106218;1259;60252;-79
2023/04/21 04:27:45;;;;;;;32.10;10.50;;;;;;;7.91;100.00;98909.39;106162;1259;73779;-80
2023/04/21 04:30:12;;;;;;;31.40;14.80;;;;;;;8.09;100.00;98902.81;106198;1257;68914;-78
2023/04/21 04:32:40;;;;;;;72.70;30.60;;;;;;;8.49;100.00;98906.40;105920;1264;72436;-79
2023/04/21 04:35:08;;;;;;;163.00;79.50;;;;;;;8.68;100.00;98904.66;106020;1257;61642;-79
2023/04/21 04:37:35;;;;;;;44.70;19.10;;;;;;;9.11;100.00;98900.33;106085;1254;60469;-81
2023/04/21 04:40:09;;;;;;;48.70;24.40;;;;;;;9.35;100.00;98898.56;105935;1262;74990;-79
2023/04/21 04:42:38;;;;;;;26.90;12.80;;;;;;;9.57;100.00;98902.56;106025;1258;69179;-80
2023/04/21 04:45:07;;;;;;;32.20;12.40;;;;;;;9.60;100.00;98900.64;106126;1255;71727;-79
2023/04/21 04:47:34;;;;;;;26.10;9.30;;;;;;;9.60;100.00;98905.73;106151;1259;62625;-80
2023/04/21 04:50:01;;;;;;;34.50;18.90;;;;;;;9.67;100.00;98901.11;106180;1257;60338;-79
2023/04/21 04:52:28;;;;;;;20.80;13.90;;;;;;;10.01;100.00;98907.52;106099;1256;74830;-81
2023/04/21 04:54:55;;;;;;;48.20;26.30;;;;;;;10.17;100.00;98903.98;106132;1257;69218;-80
2023/04/21 04:57:22;;;;;;;25.60;10.00;;;;;;;10.23;100.00;98910.59;106130;1254;71025;-79
2023/04/21 04:59:56;;;;;;;36.90;9.40;;;;;;;10.18;100.00;98911.02;106149;1257;60929;-79
2023/04/21 05:02:24;;;;;;;29.00;8.40;;;;;;;10.15;100.00;98915.89;106151;1257;61486;-81
2023/04/21 05:04:51;;;;;;;17.00;8.70;;;;;;;10.25;100.00;98917.56;106115;1257;74882;-82
2023/04/21 05:07:18;;;;;;;39.30;12.50;;;;;;;10.35;100.00;98916.16;106016;1259;68588;-81
2023/04/21 05:09:45;;;;;;;86.80;77.50;;;;;;;10.46;100.00;98915.24;106108;1257;72738;-82
2023/04/21 05:12:13;;;;;;;36.00;29.70;;;;;;;10.48;100.00;98919.54;106338;1259;61879;-81
2023/04/21 05:14:40;;;;;;;36.00;15.10;;;;;;;10.49;100.00;98921.63;106321;1256;60428;-79
2023/04/21 05:17:07;;;;;;;25.90;9.00;;;;;;;10.53;100.00;98922.05;106189;1254;72916;-80
2023/04/21 05:19:36;;;;;;;22.70;9.50;;;;;;;10.57;100.00;98918.09;106098;1257;68690;-78
2023/04/21 05:22:05;;;;;;;42.70;9.80;;;;;;;10.69;100.00;98923.02;106343;1254;72290;-80
2023/04/21 05:24:33;;;;;;;21.90;8.60;;;;;;;10.74;100.00;98921.19;106317;1256;62373;-80
2023/04/21 05:27:01;;;;;;;33.10;8.80;;;;;;;10.95;100.00;98912.84;106504;1255;61015;-81
2023/04/21 05:29:29;;;;;;;35.00;9.80;;;;;;;11.38;100.00;98916.31;106185;1256;74412;-81
2023/04/21 05:31:56;;;;;;;61.60;54.90;;;;;;;11.77;100.00;98911.36;106078;1258;69842;-81
2023/04/21 05:34:23;;;;;;;59.80;51.40;;;;;;;11.68;100.00;98902.80;106068;1254;72037;-79
2023/04/21 05:36:51;;;;;;;35.50;25.00;;;;;;;11.77;100.00;98903.24;106053;1256;61805;-79
2023/04/21 05:39:17;;;;;;;109.00;65.30;;;;;;;12.48;100.00;98906.40;106141;1257;60470;-78
2023/04/21 05:41:44;;;;;;;65.70;33.80;;;;;;;12.96;100.00;98905.36;106170;1256;73591;-81
2023/04/21 05:44:11;;;;;;;40.00;17.40;;;;;;;13.35;95.31;98908.80;106161;1254;69072;-79
2023/04/21 05:46:38;;;;;;;26.10;18.00;;;;;;;13.44;94.98;98916.50;106153;1256;71933;-80
2023/04/21 05:49:05;;;;;;;15.80;7.00;;;;;;;14.03;93.28;98916.53;106174;1257;60446;-79
2023/04/21 05:51:31;;;;;;;23.50;6.40;;;;;;;14.42;80.18;98920.58;106180;1254;60581;-80
2023/04/21 05:53:58;;;;;;;20.40;6.30;;;;;;;14.86;74.50;98925.86;106160;1257;73796;-79
2023/04/21 05:56:25;;;;;;;32.40;17.70;;;;;;;14.61;72.41;98924.48;106128;1254;69720;-79
2023/04/21 05:58:51;;;;;;;22.90;6.60;;;;;;;14.37;72.26;98928.20;106198;1256;72271;-80
2023/04/21 06:01:18;;;;;;;20.10;6.00;;;;;;;14.31;72.94;98938.36;106190;1257;60446;-80
2023/04/21 06:03:48;;;;;;;42.30;26.50;;;;;;;14.26;67.83;98931.75;105922;1252;61564;-81
2023/04/21 06:06:16;;;;;;;21.00;8.90;;;;;;;14.15;65.53;98934.46;105990;1255;73644;-79
2023/04/21 06:08:43;;;;;;;21.30;6.50;;;;;;;14.15;67.20;98933.27;106327;1254;69815;-80
2023/04/21 06:11:10;;;;;;;18.90;5.10;;;;;;;13.92;67.09;98932.47;109411;1252;73284;-80
2023/04/21 06:13:37;;;;;;;18.10;5.80;;;;;;;13.65;68.19;98934.17;108882;1256;60411;-82
2023/04/21 06:16:06;;;;;;;22.70;7.50;;;;;;;13.52;70.11;98930.16;106309;1255;60452;-80
2023/04/21 06:18:32;;;;;;;19.30;7.10;;;;;;;13.55;68.35;98926.89;106173;1257;74557;-81
2023/04/21 06:20:59;;;;;;;14.90;6.10;;;;;;;13.66;68.03;98931.88;106271;1257;69007;-81
2023/04/21 06:23:27;;;;;;;16.30;8.30;;;;;;;14.09;64.81;98931.20;106318;1257;73742;-79
2023/04/21 06:26:00;;;;;;;29.60;23.80;;;;;;;13.97;61.82;98934.45;106311;1254;61313;-81
2023/04/21 06:28:27;;;;;;;14.30;9.40;;;;;;;13.83;63.27;98935.23;106383;1254;61282;-81
2023/04/21 06:30:54;;;;;;;22.30;9.20;;;;;;;13.77;63.26;98937.25;106351;1254;74740;-80
2023/04/21 06:33:20;;;;;;;22.90;11.80;;;;;;;13.46;63.43;98934.45;106396;1257;68964;-80
2023/04/21 06:35:47;;;;;;;22.10;10.50;;;;;;;13.24;67.79;98933.81;106250;1254;73623;-81
2023/04/21 06:38:14;;;;;;;17.70;8.60;;;;;;;13.26;68.11;98934.55;106211;1257;60428;-80
2023/04/21 06:40:41;;;;;;;27.70;9.00;;;;;;;13.34;62.52;98930.91;106242;1258;61218;-81
2023/04/21 06:43:08;;;;;;;13.70;7.70;;;;;;;13.26;62.67;98932.59;106356;1257;72053;-81
2023/04/21 06:45:35;;;;;;;17.50;10.20;;;;;;;13.11;63.89;98933.98;106206;1254;69083;-81
2023/04/21 06:48:01;;;;;;;19.70;9.70;;;;;;;13.05;65.69;98933.28;106154;1254;73632;-81
2023/04/21 06:50:29;;;;;;;23.80;10.80;;;;;;;13.10;64.72;98928.61;106338;1257;61143;-82
2023/04/21 06:52:56;;;;;;;23.30;13.30;;;;;;;13.12;59.68;98924.87;106452;1256;60427;-81
2023/04/21 06:55:23;;;;;;;18.00;10.00;;;;;;;12.99;57.00;98933.61;106268;1263;73598;-82
2023/04/21 06:57:50;;;;;;;17.50;9.30;;;;;;;12.78;55.03;98926.22;106226;1254;67318;-82
2023/04/21 07:00:17;;;;;;;22.80;11.30;;;;;;;12.87;56.69;98927.11;106497;1254;72380;-81
2023/04/21 07:02:44;;;;;;;22.40;12.90;;;;;;;13.06;57.60;98931.02;106478;1254;60519;-82
2023/04/21 07:05:13;;;;;;;24.30;13.10;;;;;;;13.31;55.89;98926.46;106592;1256;60338;-82
2023/04/21 07:07:40;;;;;;;18.50;11.50;;;;;;;13.45;55.48;98927.98;106518;1254;72797;-79
2023/04/21 07:10:08;;;;;;;15.20;10.00;;;;;;;13.48;52.66;98925.20;106621;1254;69813;-81
2023/04/21 07:12:34;;;;;;;23.20;11.90;;;;;;;13.69;51.94;98926.12;106387;1254;73700;-82
2023/04/21 07:15:01;;;;;;;24.60;12.40;;;;;;;13.87;51.83;98922.38;106505;1257;60671;-83
2023/04/21 07:17:29;;;;;;;18.20;10.70;;;;;;;14.19;50.61;98919.56;106494;1255;61336;-83
2023/04/21 07:19:56;;;;;;;14.20;8.70;;;;;;;14.05;48.53;98925.68;106480;1255;74667;-83
2023/04/21 07:22:24;;;;;;;13.80;9.30;;;;;;;13.73;48.18;98926.14;106600;1253;69544;-80
2023/04/21 07:24:51;;;;;;;;;;;;;;;13.57;48.65;98924.87;106373;1254;73554;-83
2023/04/21 07:27:18;;;;;;;13.30;10.20;;;;;;;13.80;49.14;98926.52;106287;1254;61281;-83
2023/04/21 07:29:45;;;;;;;15.70;8.90;;;;;;;14.25;48.19;98922.16;106330;1255;61324;-82
2023/04/21 07:32:11;;;;;;;13.90;7.90;;;;;;;14.30;46.88;98927.55;106392;1254;72857;-82
2023/04/21 07:34:39;;;;;;;14.70;9.50;;;;;;;14.03;46.30;98920.13;106353;1254;68983;-83
2023/04/21 07:37:06;;;;;;;;;;;;;;;14.13;46.99;98922.98;106291;1254;72741;-81
2023/04/21 07:39:33;;;;;;;16.10;8.40;;;;;;;14.47;46.81;98921.57;106522;1253;61058;-80
2023/04/21 07:42:00;;;;;;;11.20;8.60;;;;;;;14.38;46.13;98925.21;106424;1254;61017;-81
2023/04/21 07:44:28;;;;;;;17.90;8.10;;;;;;;14.16;46.95;98920.58;106328;1254;73256;-82
2023/04/21 07:46:55;;;;;;;11.30;8.90;;;;;;;14.14;47.88;98919.57;106147;1254;69279;-82
2023/04/21 07:49:22;;;;;;;13.40;9.30;;;;;;;14.24;47.62;98912.40;106210;1257;72493;-82
2023/04/21 07:51:49;;;;;;;16.40;10.00;;;;;;;14.31;47.70;98918.02;106087;1254;60929;-82
2023/04/21 07:54:16;;;;;;;13.60;9.90;;;;;;;14.61;47.80;98914.82;106225;1254;60543;-84
2023/04/21 07:56:43;;;;;;;17.50;10.20;;;;;;;15.25;47.32;98920.54;106131;1257;74620;-82
2023/04/21 07:59:10;;;;;;;13.70;9.90;;;;;;;15.82;46.09;98926.73;106098;1257;67498;-82
2023/04/21 08:01:37;;;;;;;12.20;8.40;;;;;;;16.40;45.06;98925.47;106154;1257;73558;-83
2023/04/21 08:04:05;;;;;;;22.10;9.80;;;;;;;16.71;42.98;98926.68;106224;1254;61147;-83
2023/04/21 08:06:32;;;;;;;20.70;12.40;;;;;;;16.38;43.63;98926.98;106065;1254;60463;-87
2023/04/21 08:09:00;;;;;;;16.90;10.50;;;;;;;15.78;44.29;98926.19;106472;1262;73725;-83
2023/04/21 08:11:27;;;;;;;11.40;8.20;;;;;;;15.15;45.39;98925.28;105921;1254;68967;-83
2023/04/21 08:13:54;;;;;;;14.60;9.20;;;;;;;14.59;46.11;98923.91;106083;1254;73570;-81
2023/04/21 08:16:21;;;;;;;18.90;10.70;;;;;;;14.28;47.27;98919.74;105879;1254;61357;-82
2023/04/21 08:18:48;;;;;;;20.40;11.20;;;;;;;14.25;47.50;98924.75;106045;1254;60422;-82
2023/04/21 08:21:15;;;;;;;17.90;12.60;;;;;;;14.51;47.54;98925.06;106091;1254;74012;-83
2023/04/21 08:23:42;;;;;;;17.80;10.70;;;;;;;14.89;46.56;98929.15;106127;1254;68818;-78
2023/04/21 08:26:09;;;;;;;16.30;9.70;;;;;;;14.81;45.42;98931.94;106122;1254;72676;-83
2023/04/21 08:28:36;;;;;;;13.40;9.10;;;;;;;14.95;44.78;98932.88;105858;1257;60722;-82
2023/04/21 08:31:04;;;;;;;14.80;9.80;;;;;;;15.32;44.74;98930.30;106072;1253;60482;-82
2023/04/21 08:33:31;;;;;;;15.00;10.70;;;;;;;15.85;43.72;98931.46;106047;1256;74927;-83
2023/04/21 08:35:58;;;;;;;18.30;10.30;;;;;;;16.50;42.97;98933.52;106054;1255;69533;-83
2023/04/21 08:38:36;;;;;;;;;;;;;;;16.72;41.84;98932.92;106164;1257;73526;-82
2023/04/21 08:41:03;;;;;;;13.70;9.20;;;;;;;16.78;41.58;98928.94;105911;1258;61380;-80
2023/04/21 08:43:30;;;;;;;16.70;9.80;;;;;;;16.82;40.88;98933.89;106302;1257;60318;-83
2023/04/21 08:45:57;;;;;;;11.90;9.00;;;;;;;16.67;41.12;98932.60;106293;1253;72782;-83
2023/04/21 08:48:25;;;;;;;16.10;10.10;;;;;;;16.95;40.94;98933.26;105970;1259;68711;-80
2023/04/21 08:50:52;;;;;;;17.80;10.10;;;;;;;16.94;40.48;98927.73;106099;1258;71359;-82
2023/04/21 08:53:19;;;;;;;15.50;9.80;;;;;;;17.03;40.64;98927.77;105851;1254;62288;-83
2023/04/21 08:55:50;;;;;;;20.80;13.30;;;;;;;17.09;40.27;98926.97;106128;1257;60425;-82
2023/04/21 08:58:36;;;;;;;18.20;10.60;;;;;;;17.36;40.76;98928.52;106146;1256;74689;-81
2023/04/21 09:01:03;;;;;;;11.90;9.30;;;;;;;17.61;39.46;98922.54;106148;1254;69059;-81
2023/04/21 09:03:30;;;;;;;13.50;8.40;;;;;;;17.53;39.03;98929.56;106034;1256;158059;-82
2023/04/21 09:06:04;;;;;;;14.80;9.00;;;;;;;17.01;38.52;98919.70;106140;1254;60478;-82
2023/04/21 09:08:36;;;;;;;16.70;10.00;;;;;;;16.85;39.48;98925.41;106221;1256;61191;-81
2023/04/21 09:11:03;;;;;;;15.60;9.50;;;;;;;17.09;40.10;98921.17;106070;1252;74685;-79
2023/04/21 09:13:34;;;;;;;19.70;10.60;;;;;;;17.40;40.08;98919.57;107340;1252;69205;-82
2023/04/21 09:16:21;;;;;;;13.90;8.60;;;;;;;17.66;39.76;98914.30;109651;1252;71530;-82
2023/04/21 09:18:52;;;;;;;17.20;10.90;;;;;;;17.78;39.81;98909.27;106790;1254;60513;-82
2023/04/21 09:21:19;;;;;;;26.30;14.00;;;;;;;17.72;39.29;98907.81;106468;1252;60486;-83
2023/04/21 09:23:47;;;;;;;22.60;12.40;;;;;;;17.67;39.46;98915.33;106289;1257;74170;-82
2023/04/21 09:26:17;;;;;;;16.50;9.00;;;;;;;17.49;38.60;98906.07;106320;1254;69949;-82
2023/04/21 09:28:46;;;;;;;20.60;13.10;;;;;;;17.35;38.87;98914.22;106231;1254;72593;-80
2023/04/21 09:31:16;;;;;;;17.50;11.60;;;;;;;17.59;39.16;98907.84;106308;1257;60424;-80
2023/04/21 09:33:55;;;;;;;16.40;10.30;;;;;;;17.64;39.39;98913.18;105866;1252;60674;-79
2023/04/21 09:36:28;;;;;;;25.10;12.50;;;;;;;17.75;38.87;98910.38;106233;1256;74885;-84
2023/04/21 09:38:56;;;;;;;19.40;13.80;;;;;;;17.83;38.51;98907.02;106447;1254;69374;-81
2023/04/21 09:41:43;;;;;;;23.20;12.80;;;;;;;17.81;37.80;98909.94;106280;1254;73577;-78
2023/04/21 09:44:10;;;;;;;15.30;11.40;;;;;;;17.54;38.72;98908.00;106075;1254;61016;-80
2023/04/21 09:46:38;;;;;;;25.80;12.80;;;;;;;17.09;39.34;98911.25;106250;1254;61397;-83
2023/04/21 09:49:05;;;;;;;17.10;8.70;;;;;;;17.03;39.75;98914.66;105887;1253;73835;-81
2023/04/21 09:51:32;;;;;;;13.20;8.90;;;;;;;16.84;38.73;98919.63;106275;1254;69775;-85
2023/04/21 09:54:19;;;;;;;18.00;8.00;;;;;;;16.59;38.85;98917.21;105966;1259;72841;-83
2023/04/21 09:56:52;;;;;;;15.80;7.80;;;;;;;16.80;37.63;98919.64;106041;1254;60571;-81
2023/04/21 09:59:26;;;;;;;13.50;7.00;;;;;;;16.97;37.46;98916.99;106001;1253;60635;-77
2023/04/21 10:01:53;;;;;;;13.20;6.70;;;;;;;16.66;37.23;98913.36;106167;1257;74864;-81
2023/04/21 10:04:22;;;;;;;13.40;8.30;;;;;;;16.63;38.37;98909.02;106130;1254;69734;-83
2023/04/21 10:06:50;;;;;;;24.10;9.50;;;;;;;16.59;38.28;98905.11;106159;1254;73589;-79
2023/04/21 10:09:19;;;;;;;27.70;9.30;;;;;;;16.36;39.01;98903.90;105919;1254;60844;-82
2023/04/21 10:11:46;;;;;;;;;;;;;;;16.35;38.56;98901.65;106034;1254;60510;-83
2023/04/21 10:14:13;;;;;;;15.70;7.50;;;;;;;16.22;39.38;98901.80;106277;1257;74909;-81
2023/04/21 10:16:41;;;;;;;15.90;9.00;;;;;;;16.43;39.03;98904.49;106180;1257;68811;-81
2023/04/21 10:19:24;;;;;;;;;;;;;;;16.44;39.08;98902.46;105899;1253;72990;-83
2023/04/21 10:21:52;;;;;;;13.40;7.10;;;;;;;16.19;39.29;98896.23;106128;1255;60470;-82
2023/04/21 10:24:18;;;;;;;13.20;8.50;;;;;;;16.17;39.91;98898.83;106037;1254;61237;-79
2023/04/21 10:26:46;;;;;;;17.00;8.60;;;;;;;16.45;39.86;98897.40;106320;1254;74014;-81
2023/04/21 10:29:15;;;;;;;19.40;9.00;;;;;;;16.80;39.60;98894.16;106167;1254;71139;-82
2023/04/21 10:31:52;;;;;;;11.70;8.00;;;;;;;17.05;39.29;98893.18;105893;1257;71352;-84
2023/04/21 10:34:29;;;;;;;17.30;8.70;;;;;;;16.97;39.18;98892.91;106141;1254;60511;-78
2023/04/21 10:36:58;;;;;;;20.50;8.50;;;;;;;17.29;39.62;98888.73;106190;1257;60355;-78
2023/04/21 10:39:35;;;;;;;14.10;7.80;;;;;;;17.47;38.95;98883.23;106108;1254;74437;-83
2023/04/21 10:42:11;;;;;;;16.70;8.00;;;;;;;17.52;36.86;98889.67;106461;1253;68373;-81
2023/04/21 10:44:55;;;;;;;15.80;7.90;;;;;;;17.81;37.10;98886.23;106066;1254;71415;-81
2023/04/21 10:47:30;;;;;;;16.10;7.30;;;;;;;17.84;36.26;98889.55;106308;1253;60393;-81
2023/04/21 10:49:57;;;;;;;11.00;7.00;;;;;;;17.73;36.62;98890.41;106142;1254;61167;-81
2023/04/21 10:52:33;;;;;;;17.80;7.10;;;;;;;17.75;36.46;98895.42;106064;1257;73623;-83
2023/04/21 10:55:00;;;;;;;11.50;6.70;;;;;;;17.79;36.26;98881.77;106064;1254;67840;-81
2023/04/21 10:57:30;;;;;;;13.90;6.40;;;;;;;17.78;35.84;98881.52;106102;1256;73784;-81
2023/04/21 10:59:57;;;;;;;18.70;7.00;;;;;;;17.66;34.58;98889.30;105584;1258;60547;-79
2023/04/21 11:02:24;;;;;;;20.40;7.00;;;;;;;17.77;35.67;98885.67;105900;1258;60634;-82
2023/04/21 11:04:52;;;;;;;16.70;6.70;;;;;;;17.82;35.54;98886.08;105804;1258;74926;-81
2023/04/21 11:07:21;;;;;;;19.00;6.80;;;;;;;17.86;34.98;98884.77;106027;1262;66662;-81
2023/04/21 11:10:13;;;;;;;10.90;6.50;;;;;;;18.15;35.42;98887.55;106226;1258;71398;-81
2023/04/21 11:12:42;;;;;;;12.60;6.30;;;;;;;18.33;34.36;98892.46;105927;1258;61370;-83
2023/04/21 11:15:14;;;;;;;15.20;6.90;;;;;;;18.14;34.51;98887.10;105923;1262;60364;-82
2023/04/21 11:17:45;;;;;;;11.80;6.00;;;;;;;18.11;34.92;98888.01;105643;1265;73647;-83
2023/04/21 11:20:13;;;;;;;12.70;5.80;;;;;;;18.20;35.14;98889.48;106034;1263;68412;-81